Naikai2 — JD2433 — position and weather

sailwx.info

Track history (hours):
 
Tides and Currents Weather Stations Pressure Air Temp Water Temp Dewpoint Dewpoint Depression Visibility Wind Speed Wind Dir Waves Ship Positions

Naikai2

Last reported at 2015-Apr-21 03:20 UTC. Time now 2015-Apr-21 09:44 UTC.
Position N 34°39' E 135°10'.

Length 28 m; draft 2.2 m.

Type: Other ship. MMSI: 431000283.

Date/timePositionNaut miles runAvg speedWind from/ knotsBaromVisibWave heightAir tempDewpointWater temp
2015-Apr-21 03:20N 34°39' E 135°10'2 2.1
2015-Apr-21 02:33N 34°40' E 135°12'1312.4
2015-Apr-21 01:32N 34°33' E 135°25'5 5.3
2015-Apr-21 00:33N 34°33' E 135°19'10 9.2
2015-Apr-20 23:31N 34°28' E 135°09'1413.7
2015-Apr-20 22:32N 34°17' E 134°59'6 6.3
2015-Apr-20 21:33N 34°11' E 134°60'1312.6
2015-Apr-20 20:33N 34°24' E 135°00'1514.8
2015-Apr-20 19:33N 34°37' E 135°09'2 0.1
2015-Apr-20 03:33N 34°38' E 135°11'1211.7
2015-Apr-20 02:33N 34°33' E 135°24'5 5.1
2015-Apr-20 01:29N 34°34' E 135°18'1111.7
2015-Apr-20 00:32N 34°26' E 135°07'1413.9
2015-Apr-19 23:33N 34°14' E 134°59'4 3.8
2015-Apr-19 22:30N 34°18' E 134°59'1313.5
2015-Apr-19 21:33N 34°30' E 135°04'1010.1
2015-Apr-19 20:33N 34°39' E 135°10'0 0.0
2015-Apr-19 06:14N 34°39' E 135°10'914.0
2015-Apr-19 05:33N 34°38' E 134°59'5 4.7
2015-Apr-19 04:33N 34°36' E 135°04'2 2.4
2015-Apr-19 03:32N 34°36' E 135°01'0 0.1
2015-Apr-19 01:23N 34°36' E 135°01'4 4.3
2015-Apr-19 00:33N 34°36' E 135°05'5 5.0
2015-Apr-18 23:33N 34°39' E 135°10'1 0.1
2015-Apr-18 04:16N 34°38' E 135°11'1014.3
2015-Apr-18 03:33N 34°34' E 135°22'1 1.3
2015-Apr-18 02:31N 34°33' E 135°21'9 8.9
2015-Apr-18 01:33N 34°37' E 135°12'2 2.4
2015-Apr-18 00:33N 34°39' E 135°10'0 0.0
2015-Apr-16 03:05N 34°39' E 135°10'1 2.6
2015-Apr-16 02:33N 34°40' E 135°11'1312.5
2015-Apr-16 01:33N 34°34' E 135°24'1 1.5
2015-Apr-16 00:32N 34°33' E 135°22'5 5.5
2015-Apr-15 23:33N 34°35' E 135°15'6 6.4
2015-Apr-15 22:33N 34°39' E 135°10'0 0.0
2015-Apr-15 15:12N 34°39' E 135°10'812.3
2015-Apr-15 14:33N 34°37' E 135°01'3 1.6
2015-Apr-15 12:32N 34°37' E 134°57'1111.5
2015-Apr-15 11:33N 34°39' E 135°10'  
2015-Apr-13 07:33N 34°36' E 135°07'9 8.5
2015-Apr-13 06:31N 34°36' E 134°57'3 3.2
2015-Apr-13 05:28N 34°36' E 135°01'0 0.0
2015-Apr-13 04:04N 34°36' E 135°01'0 0.0
2015-Apr-13 03:10N 34°36' E 135°01'3 0.9
2015-Apr-12 23:33N 34°37' E 134°57'1010.2
2015-Apr-12 22:33N 34°37' E 135°09'2 1.9
2015-Apr-12 21:33N 34°39' E 135°10'0 0.0
2015-Apr-12 11:24N 34°39' E 135°10'1214.9
2015-Apr-12 10:33N 34°27' E 135°05'1211.2
2015-Apr-12 09:29N 34°17' E 134°58'1415.1
2015-Apr-12 08:33N 34°30' E 135°04'9 7.5
2015-Apr-12 07:21N 34°36' E 134°56'4 1.2
2015-Apr-12 04:15N 34°33' E 134°53'5 6.5
2015-Apr-12 03:31N 34°36' E 134°57'8 8.7
2015-Apr-12 02:33N 34°35' E 135°07'4 3.8
2015-Apr-12 01:33N 34°36' E 135°03'1 1.0
2015-Apr-12 00:33N 34°36' E 135°04'6 5.6
2015-Apr-11 23:33N 34°39' E 135°10'0 0.4
2015-Apr-11 22:33N 34°39' E 135°10'  
Track history (hours):
 
Tides and Currents Weather Stations Pressure Air Temp Water Temp Dewpoint Dewpoint Depression Visibility Wind Speed Wind Dir Waves Ship Positions

Naikai2

Last reported at 2015-Apr-21 03:20 UTC. Time now 2015-Apr-21 09:44 UTC.
Position N 34°39' E 135°10'.

Length 28 m; draft 2.2 m.

Type: Other ship. MMSI: 431000283.

Date/timePositionNaut miles runAvg speedWind from/ knotsBaromVisibWave heightAir tempDewpointWater temp
2015-Apr-21 03:20N 34°39' E 135°10'2 2.1
2015-Apr-21 02:33N 34°40' E 135°12'1312.4
2015-Apr-21 01:32N 34°33' E 135°25'5 5.3
2015-Apr-21 00:33N 34°33' E 135°19'10 9.2
2015-Apr-20 23:31N 34°28' E 135°09'1413.7
2015-Apr-20 22:32N 34°17' E 134°59'6 6.3
2015-Apr-20 21:33N 34°11' E 134°60'1312.6
2015-Apr-20 20:33N 34°24' E 135°00'1514.8
2015-Apr-20 19:33N 34°37' E 135°09'2 0.1
2015-Apr-20 03:33N 34°38' E 135°11'1211.7
2015-Apr-20 02:33N 34°33' E 135°24'5 5.1
2015-Apr-20 01:29N 34°34' E 135°18'1111.7
2015-Apr-20 00:32N 34°26' E 135°07'1413.9
2015-Apr-19 23:33N 34°14' E 134°59'4 3.8
2015-Apr-19 22:30N 34°18' E 134°59'1313.5
2015-Apr-19 21:33N 34°30' E 135°04'1010.1
2015-Apr-19 20:33N 34°39' E 135°10'0 0.0
2015-Apr-19 06:14N 34°39' E 135°10'914.0
2015-Apr-19 05:33N 34°38' E 134°59'5 4.7
2015-Apr-19 04:33N 34°36' E 135°04'2 2.4
2015-Apr-19 03:32N 34°36' E 135°01'0 0.1
2015-Apr-19 01:23N 34°36' E 135°01'4 4.3
2015-Apr-19 00:33N 34°36' E 135°05'5 5.0
2015-Apr-18 23:33N 34°39' E 135°10'1 0.1
2015-Apr-18 04:16N 34°38' E 135°11'1014.3
2015-Apr-18 03:33N 34°34' E 135°22'1 1.3
2015-Apr-18 02:31N 34°33' E 135°21'9 8.9
2015-Apr-18 01:33N 34°37' E 135°12'2 2.4
2015-Apr-18 00:33N 34°39' E 135°10'0 0.0
2015-Apr-16 03:05N 34°39' E 135°10'1 2.6
2015-Apr-16 02:33N 34°40' E 135°11'1312.5
2015-Apr-16 01:33N 34°34' E 135°24'1 1.5
2015-Apr-16 00:32N 34°33' E 135°22'5 5.5
2015-Apr-15 23:33N 34°35' E 135°15'6 6.4
2015-Apr-15 22:33N 34°39' E 135°10'0 0.0
2015-Apr-15 15:12N 34°39' E 135°10'812.3
2015-Apr-15 14:33N 34°37' E 135°01'3 1.6
2015-Apr-15 12:32N 34°37' E 134°57'1111.5
2015-Apr-15 11:33N 34°39' E 135°10'  
2015-Apr-13 07:33N 34°36' E 135°07'9 8.5
2015-Apr-13 06:31N 34°36' E 134°57'3 3.2
2015-Apr-13 05:28N 34°36' E 135°01'0 0.0
2015-Apr-13 04:04N 34°36' E 135°01'0 0.0
2015-Apr-13 03:10N 34°36' E 135°01'3 0.9
2015-Apr-12 23:33N 34°37' E 134°57'1010.2
2015-Apr-12 22:33N 34°37' E 135°09'2 1.9
2015-Apr-12 21:33N 34°39' E 135°10'0 0.0
2015-Apr-12 11:24N 34°39' E 135°10'1214.9
2015-Apr-12 10:33N 34°27' E 135°05'1211.2
2015-Apr-12 09:29N 34°17' E 134°58'1415.1
2015-Apr-12 08:33N 34°30' E 135°04'9 7.5
2015-Apr-12 07:21N 34°36' E 134°56'4 1.2
2015-Apr-12 04:15N 34°33' E 134°53'5 6.5
2015-Apr-12 03:31N 34°36' E 134°57'8 8.7
2015-Apr-12 02:33N 34°35' E 135°07'4 3.8
2015-Apr-12 01:33N 34°36' E 135°03'1 1.0
2015-Apr-12 00:33N 34°36' E 135°04'6 5.6
2015-Apr-11 23:33N 34°39' E 135°10'0 0.4
2015-Apr-11 22:33N 34°39' E 135°10'  

Dump ship's entire track history